Ryno, Nebraska
Current Conditions -  °F | °C
As of 1:53 AM on Friday 31 Oct 2014 (Local Time) from KBBW Reporting Station
Overcast Overcast  
Wind Chill: 24°   Ceiling: 800
Heat Index: 34°   Visibility: 10mi
Dew Point: 30°   Wind: 16mph
Humidity: 85%   Direction: 10°N
Pressure: 30.47"   Gusts: 23mph
Location:  41.1872°N, 100.067°W
Report Text: KBBW 310653Z AUTO 01014G20KT 10SM OVC008 01/M01 A3047 RMK AO2 SLP324 T00111011
Loading
Personal Weather Stations






























Interactive Weather Map
Tropical Storm Tracking
New forecast layout! Learn more

10-Day Weather Forecast

Advertisements
Track Severe Weather on mobile